Time;durP1;ratioP1;P1;durP2;ratioP2;P2;SDS_P1;SDS_P2;PMS_P1;PMS_P2;Temp;Humidity;BMP_temperature;BMP_pressure;BME280_temperature;BME280_humidity;BME280_pressure;Samples;Min_cycle;Max_cycle;Signal;HPM_P1;HPM_P2
2023/01/11 00:00:35;;;;;;;;;;;7.90;99.90;;;;;;4940018;29;19951;-89
2023/01/11 00:03:02;;;;;;;;;;;7.80;99.90;;;;;;4940007;29;19927;-88
2023/01/11 00:05:27;;;;;;;;;;;8.10;99.90;;;;;;4940754;29;19930;-88
2023/01/11 00:07:53;;;;;;;;;;;7.90;99.90;;;;;;4939676;29;19934;-90
2023/01/11 00:10:19;;;;;;;;;;;8.20;99.90;;;;;;4939657;29;19973;-89
2023/01/11 00:12:45;;;;;;;;;;;8.20;99.90;;;;;;4923910;29;20344;-89
2023/01/11 00:15:11;;;;;;;;;;;8.10;99.90;;;;;;4939665;29;19977;-88
2023/01/11 00:17:37;;;;;;;;;;;7.60;99.90;;;;;;4939503;29;20001;-89
2023/01/11 00:20:03;;;;;;;;;;;7.90;99.90;;;;;;4924472;29;20450;-89
2023/01/11 00:22:29;;;;;;;;;;;8.00;99.90;;;;;;4939564;29;20394;-89
2023/01/11 00:24:54;;;;;;;;;;;7.90;99.90;;;;;;4939737;29;20378;-89
2023/01/11 00:27:20;;;;;;;;;;;8.00;99.90;;;;;;4939038;29;20069;-88
2023/01/11 00:29:45;;;;;;;;;;;8.00;99.90;;;;;;4938793;29;19934;-88
2023/01/11 00:32:13;;;;;;;;;;;8.00;99.90;;;;;;4938986;29;19927;-89
2023/01/11 00:34:39;;;;;;;;;;;8.10;99.90;;;;;;4939942;29;19978;-89
2023/01/11 00:37:05;;;;;;;;;;;8.20;99.90;;;;;;4923833;29;19930;-90
2023/01/11 00:39:30;;;;;;;;;;;8.10;99.90;;;;;;4923588;29;19926;-89
2023/01/11 00:50:09;;;;;;;;;;;8.20;99.90;;;;;;4939164;29;19926;-89
2023/01/11 00:52:34;;;;;;;;;;;8.20;99.90;;;;;;4922814;29;19926;-89
2023/01/11 00:55:00;;;;;;;;;;;8.20;99.90;;;;;;4938581;29;20021;-89
2023/01/11 00:57:26;;;;;;;;;;;8.30;99.90;;;;;;4938892;29;19927;-88
2023/01/11 00:59:51;;;;;;;;;;;8.40;99.90;;;;;;4938839;29;19934;-88
2023/01/11 01:02:17;;;;;;;;;;;8.30;99.90;;;;;;4938810;29;19937;-88
2023/01/11 01:04:43;;;;;;;;;;;8.40;99.90;;;;;;4938875;29;19954;-89
2023/01/11 01:07:10;;;;;;;;;;;8.20;99.90;;;;;;4938970;29;19926;-89
2023/01/11 01:09:36;;;;;;;;;;;8.50;99.90;;;;;;4923061;29;19926;-89
2023/01/11 01:12:02;;;;;;;;;;;8.30;99.90;;;;;;4922905;29;19933;-89
2023/01/11 01:14:28;;;;;;;;;;;8.30;99.90;;;;;;4922713;29;19927;-90
2023/01/11 01:16:55;;;;;;;;;;;8.30;99.90;;;;;;4923582;29;19930;-90
2023/01/11 01:19:21;;;;;;;;;;;8.40;99.90;;;;;;4922893;29;19951;-89
2023/01/11 01:21:48;;;;;;;;;;;8.40;99.90;;;;;;4939209;29;19931;-89
2023/01/11 01:24:13;;;;;;;;;;;8.60;99.90;;;;;;4923479;29;19927;-88
2023/01/11 01:26:39;;;;;;;;;;;8.40;99.90;;;;;;4938299;29;19926;-90
2023/01/11 01:29:05;;;;;;;;;;;8.40;99.90;;;;;;4938364;29;19927;-88
2023/01/11 01:31:33;;;;;;;;;;;8.50;99.90;;;;;;4938354;29;19926;-89
2023/01/11 01:33:58;;;;;;;;;;;8.50;99.90;;;;;;4922494;29;19926;-89
2023/01/11 01:36:24;;;;;;;;;;;8.50;99.90;;;;;;4938358;29;20397;-89
2023/01/11 01:38:50;;;;;;;;;;;8.70;99.90;;;;;;4938785;29;19930;-89
2023/01/11 01:41:16;;;;;;;;;;;8.60;99.90;;;;;;4940541;29;19926;-89
2023/01/11 01:43:44;;;;;;;;;;;8.70;99.90;;;;;;4927236;29;19926;-89
2023/01/11 01:46:10;;;;;;;;;;;8.70;99.90;;;;;;4941932;29;19926;-89
2023/01/11 01:48:36;;;;;;;;;;;8.70;99.90;;;;;;4942393;29;20022;-88
2023/01/11 01:51:04;;;;;;;;;;;8.70;99.90;;;;;;4926115;29;19926;-89
2023/01/11 01:53:39;;;;;;;;;;;8.70;99.90;;;;;;4926285;29;20282;-89
2023/01/11 01:56:21;;;;;;;;;;;8.70;99.90;;;;;;4926188;29;19974;-88
2023/01/11 01:58:53;;;;;;;;;;;8.70;99.90;;;;;;4926851;29;19926;-89
2023/01/11 02:04:05;;;;;;;;;;;7.80;99.90;;;;;;4942230;29;19926;-90
2023/01/11 02:06:31;;;;;;;;;;;8.80;99.90;;;;;;4925889;29;20390;-90
2023/01/11 02:09:00;;;;;;;;;;;9.00;99.90;;;;;;4925887;29;19937;-89
2023/01/11 02:11:29;;;;;;;;;;;8.90;99.90;;;;;;4926040;29;19949;-89
2023/01/11 02:13:55;;;;;;;;;;;8.90;99.90;;;;;;4925554;29;20390;-89
2023/01/11 02:16:24;;;;;;;;;;;8.90;99.90;;;;;;4926516;29;19933;-89
2023/01/11 02:18:57;;;;;;;;;;;8.90;99.90;;;;;;4925503;29;20013;-90
2023/01/11 02:21:36;;;;;;;;;;;8.90;99.90;;;;;;4925894;29;19977;-90
2023/01/11 02:24:05;;;;;;;;;;;8.90;99.90;;;;;;4942412;29;19994;-88
2023/01/11 02:26:52;;;;;;;;;;;9.70;99.90;;;;;;4941509;29;19997;-89
2023/01/11 02:29:35;;;;;;;;;;;8.90;99.90;;;;;;4941041;29;19973;-89
2023/01/11 02:32:18;;;;;;;;;;;9.00;99.90;;;;;;4941825;29;19934;-91
2023/01/11 02:34:48;;;;;;;;;;;9.40;99.90;;;;;;4941374;29;20267;-90
2023/01/11 02:37:27;;;;;;;;;;;9.10;99.90;;;;;;4925222;29;19981;-89
2023/01/11 02:39:56;;;;;;;;;;;9.10;99.90;;;;;;4925572;29;19933;-90
2023/01/11 02:45:18;;;;;;;;;;;9.20;99.90;;;;;;4941340;29;19926;-90
2023/01/11 02:47:55;;;;;;;;;;;10.40;99.90;;;;;;4925623;29;19978;-90
2023/01/11 02:50:30;;;;;;;;;;;9.30;99.90;;;;;;4941852;29;19926;-89
2023/01/11 02:53:19;;;;;;;;;;;9.30;99.90;;;;;;4940591;29;19969;-89
2023/01/11 02:55:48;;;;;;;;;;;9.20;99.90;;;;;;4920400;29;19934;-90
2023/01/11 02:58:15;;;;;;;;;;;9.30;99.90;;;;;;4925102;29;19926;-88
2023/01/11 03:00:41;;;;;;;;;;;9.30;99.90;;;;;;4925541;29;19930;-89
2023/01/11 03:03:17;;;;;;;;;;;9.40;99.90;;;;;;4925623;29;19930;-90
2023/01/11 03:05:46;;;;;;;;;;;9.50;99.90;;;;;;4940491;29;19965;-90
2023/01/11 03:08:25;;;;;;;;;;;9.40;99.90;;;;;;4924636;29;19961;-89
2023/01/11 03:10:58;;;;;;;;;;;9.60;99.90;;;;;;4940626;29;19933;-90
2023/01/11 03:13:27;;;;;;;;;;;9.40;99.90;;;;;;4940581;29;19926;-89
2023/01/11 03:15:59;;;;;;;;;;;9.60;99.90;;;;;;4939357;29;19933;-89
2023/01/11 03:18:43;;;;;;;;;;;9.40;99.90;;;;;;4940406;29;20433;-89
2023/01/11 03:21:18;;;;;;;;;;;9.60;99.90;;;;;;4941075;29;20359;-90
2023/01/11 03:23:56;;;;;;;;;;;9.50;99.90;;;;;;4940497;29;19934;-90
2023/01/11 03:26:42;;;;;;;;;;;9.50;99.90;;;;;;4940695;29;19926;-89
2023/01/11 03:29:07;;;;;;;;;;;9.70;99.90;;;;;;4923568;29;19930;-90
2023/01/11 03:31:35;;;;;;;;;;;9.60;99.90;;;;;;4940057;29;19926;-89
2023/01/11 03:34:15;;;;;;;;;;;9.60;99.90;;;;;;4940337;29;19969;-91
2023/01/11 03:36:43;;;;;;;;;;;9.50;99.90;;;;;;4940175;29;20367;-90
2023/01/11 03:39:30;;;;;;;;;;;9.60;99.90;;;;;;4940431;29;19927;-90
2023/01/11 03:41:58;;;;;;;;;;;9.50;99.90;;;;;;4940947;29;20299;-89
2023/01/11 03:44:25;;;;;;;;;;;9.60;99.90;;;;;;4940249;29;19978;-90
2023/01/11 03:46:57;;;;;;;;;;;9.80;99.90;;;;;;4939866;29;19926;-90
2023/01/11 03:49:35;;;;;;;;;;;9.70;99.90;;;;;;4940798;29;19930;-91
2023/01/11 03:52:02;;;;;;;;;;;9.60;99.90;;;;;;4939612;29;20025;-90
2023/01/11 03:54:29;;;;;;;;;;;9.70;99.90;;;;;;4940221;29;20070;-91
2023/01/11 03:57:13;;;;;;;;;;;9.70;99.90;;;;;;4940071;29;19927;-90
2023/01/11 03:59:39;;;;;;;;;;;8.40;99.90;;;;;;4940030;29;19926;-90
2023/01/11 04:02:13;;;;;;;;;;;10.20;99.90;;;;;;4939984;29;19926;-90
2023/01/11 04:04:38;;;;;;;;;;;9.80;99.90;;;;;;4938531;29;19933;-90
2023/01/11 04:07:04;;;;;;;;;;;9.90;99.90;;;;;;4939752;29;20020;-89
2023/01/11 04:09:30;;;;;;;;;;;9.80;99.90;;;;;;4939680;29;20315;-89
2023/01/11 04:11:55;;;;;;;;;;;9.90;99.90;;;;;;4938751;29;19944;-89
2023/01/11 04:14:21;;;;;;;;;;;9.80;99.90;;;;;;4939581;29;20010;-89
2023/01/11 04:16:47;;;;;;;;;;;9.90;99.90;;;;;;4939556;29;19930;-89
2023/01/11 04:19:12;;;;;;;;;;;9.90;99.90;;;;;;4939735;29;19926;-89
2023/01/11 04:21:38;;;;;;;;;;;10.00;99.90;;;;;;4939268;29;20332;-89
2023/01/11 04:24:04;;;;;;;;;;;10.00;99.90;;;;;;4939724;29;19926;-90
2023/01/11 04:26:30;;;;;;;;;;;10.00;99.90;;;;;;4923709;29;19949;-89
2023/01/11 04:28:55;;;;;;;;;;;10.10;99.90;;;;;;4939174;29;20298;-89
2023/01/11 04:31:31;;;;;;;;;;;;;;;;;;;;;
2023/01/11 04:33:57;;;;;;;;;;;10.00;99.90;;;;;;4939655;29;19931;-90
2023/01/11 04:36:22;;;;;;;;;;;10.30;99.90;;;;;;4938834;29;20043;-89
2023/01/11 04:38:53;;;;;;;;;;;10.10;99.90;;;;;;4939456;29;19926;-89
2023/01/11 04:44:03;;;;;;;;;;;10.20;99.90;;;;;;4939878;29;19930;-90
2023/01/11 04:46:29;;;;;;;;;;;10.20;99.90;;;;;;4939453;29;19927;-89
2023/01/11 04:48:55;;;;;;;;;;;8.70;99.90;;;;;;4939053;29;19950;-90
2023/01/11 04:51:21;;;;;;;;;;;10.00;99.90;;;;;;4938665;29;19926;-89
2023/01/11 04:53:49;;;;;;;;;;;10.00;99.90;;;;;;4923354;29;19927;-89
2023/01/11 04:56:15;;;;;;;;;;;10.10;99.90;;;;;;4923671;29;19930;-89
2023/01/11 04:58:41;;;;;;;;;;;10.10;99.90;;;;;;4939206;29;20280;-91
2023/01/11 05:01:10;;;;;;;;;;;10.00;99.90;;;;;;4939529;29;19930;-89
2023/01/11 05:03:35;;;;;;;;;;;10.10;99.90;;;;;;4923404;29;20021;-90
2023/01/11 05:06:01;;;;;;;;;;;10.10;99.90;;;;;;4938492;29;20423;-90
2023/01/11 05:08:30;;;;;;;;;;;8.70;99.90;;;;;;4923106;29;19937;-89
2023/01/11 05:10:59;;;;;;;;;;;10.10;99.90;;;;;;4922231;29;19926;-89
2023/01/11 05:13:43;;;;;;;;;;;10.00;99.90;;;;;;4922809;29;19926;-90
2023/01/11 05:16:09;;;;;;;;;;;9.80;99.90;;;;;;4926543;28;19926;-91
2023/01/11 05:18:40;;;;;;;;;;;9.70;99.90;;;;;;4945052;29;19934;-90
2023/01/11 05:21:06;;;;;;;;;;;9.80;99.90;;;;;;4928821;29;20360;-90
2023/01/11 05:23:35;;;;;;;;;;;10.10;99.90;;;;;;4929216;29;19927;-90
2023/01/11 05:26:02;;;;;;;;;;;9.60;99.90;;;;;;4929163;28;19934;-87
2023/01/11 05:28:28;;;;;;;;;;;9.50;99.90;;;;;;4945415;29;20417;-87
2023/01/11 05:30:54;;;;;;;;;;;9.50;99.90;;;;;;4945657;29;19926;-89
2023/01/11 05:33:19;;;;;;;;;;;9.50;99.90;;;;;;4944932;29;19938;-90
2023/01/11 05:35:47;;;;;;;;;;;9.40;99.90;;;;;;4929618;28;19927;-90
2023/01/11 05:38:13;;;;;;;;;;;7.90;99.90;;;;;;4945965;29;20011;-89
2023/01/11 05:40:38;;;;;;;;;;;9.40;99.90;;;;;;4944968;29;20344;-88
2023/01/11 05:43:04;;;;;;;;;;;9.40;99.90;;;;;;4945125;29;19926;-87
2023/01/11 05:45:34;;;;;;;;;;;9.60;99.90;;;;;;4929341;29;19927;-87
2023/01/11 05:48:00;;;;;;;;;;;9.40;99.90;;;;;;4944935;29;20267;-88
2023/01/11 05:50:26;;;;;;;;;;;9.40;99.90;;;;;;4928899;28;19973;-88
2023/01/11 05:52:51;;;;;;;;;;;9.40;99.90;;;;;;4944667;29;19926;-88
2023/01/11 05:55:17;;;;;;;;;;;9.40;99.90;;;;;;4944635;29;19935;-87
2023/01/11 05:57:43;;;;;;;;;;;9.50;99.90;;;;;;4929615;29;19927;-87
2023/01/11 06:00:10;;;;;;;;;;;9.50;99.90;;;;;;4944667;29;19926;-88
2023/01/11 06:02:36;;;;;;;;;;;9.40;99.90;;;;;;4944685;29;19927;-87
2023/01/11 06:05:01;;;;;;;;;;;9.40;99.90;;;;;;4929016;28;19997;-87
2023/01/11 06:07:27;;;;;;;;;;;9.30;99.90;;;;;;4944619;28;19934;-88
2023/01/11 06:09:53;;;;;;;;;;;9.40;99.90;;;;;;4944396;29;19926;-87
2023/01/11 06:12:18;;;;;;;;;;;9.20;99.90;;;;;;4944341;29;19927;-87
2023/01/11 06:14:44;;;;;;;;;;;9.40;99.90;;;;;;4960504;28;19927;-87
2023/01/11 06:17:09;;;;;;;;;;;9.20;99.90;;;;;;4928565;29;19926;-87
2023/01/11 06:19:35;;;;;;;;;;;9.30;99.90;;;;;;4928784;29;19926;-88
2023/01/11 06:22:00;;;;;;;;;;;9.10;99.90;;;;;;4944634;28;19927;-87
2023/01/11 06:24:26;;;;;;;;;;;9.00;99.90;;;;;;4944370;29;19926;-87
2023/01/11 06:26:52;;;;;;;;;;;9.00;99.90;;;;;;4943042;29;19933;-87
2023/01/11 06:29:18;;;;;;;;;;;9.00;99.90;;;;;;4940681;29;19977;-87
2023/01/11 06:31:43;;;;;;;;;;;9.00;99.90;;;;;;4942219;29;19927;-88
2023/01/11 06:34:09;;;;;;;;;;;9.00;99.90;;;;;;4941402;29;20013;-88
2023/01/11 06:36:35;;;;;;;;;;;9.00;99.90;;;;;;4941461;29;19950;-88
2023/01/11 06:39:00;;;;;;;;;;;9.00;99.90;;;;;;4925933;29;19927;-88
2023/01/11 06:41:27;;;;;;;;;;;9.10;99.90;;;;;;4925836;29;19926;-87
2023/01/11 06:43:53;;;;;;;;;;;9.00;99.90;;;;;;4925786;29;19969;-87
2023/01/11 06:46:19;;;;;;;;;;;9.00;99.90;;;;;;4941389;29;19966;-88
2023/01/11 06:48:45;;;;;;;;;;;9.00;99.90;;;;;;4941440;29;19926;-88
2023/01/11 06:51:11;;;;;;;;;;;9.00;99.90;;;;;;4941170;29;19938;-87
2023/01/11 06:53:37;;;;;;;;;;;9.00;99.90;;;;;;4942079;29;20037;-87
2023/01/11 06:56:03;;;;;;;;;;;9.00;99.90;;;;;;4941079;29;20029;-88
2023/01/11 06:58:28;;;;;;;;;;;8.90;99.90;;;;;;4941137;29;19930;-87
2023/01/11 07:00:55;;;;;;;;;;;8.90;99.90;;;;;;4925225;29;19926;-87
2023/01/11 07:03:23;;;;;;;;;;;8.90;99.90;;;;;;4925166;29;19926;-88
2023/01/11 07:05:49;;;;;;;;;;;8.90;99.90;;;;;;4925118;29;19926;-87
2023/01/11 07:08:14;;;;;;;;;;;8.90;99.90;;;;;;4941018;29;19988;-88
2023/01/11 07:10:41;;;;;;;;;;;8.90;99.90;;;;;;4925032;29;19981;-88
2023/01/11 07:13:06;;;;;;;;;;;8.90;99.90;;;;;;4925380;29;20271;-87
2023/01/11 07:15:33;;;;;;;;;;;8.90;99.90;;;;;;4940944;29;19941;-87
2023/01/11 07:17:59;;;;;;;;;;;8.90;99.90;;;;;;4941530;29;19927;-87
2023/01/11 07:20:25;;;;;;;;;;;8.90;99.90;;;;;;4924709;29;19926;-88
2023/01/11 07:22:51;;;;;;;;;;;8.80;99.90;;;;;;4940825;29;19992;-88
2023/01/11 07:25:17;;;;;;;;;;;8.80;99.90;;;;;;4940999;29;20107;-88
2023/01/11 07:27:42;;;;;;;;;;;8.70;99.90;;;;;;4940388;29;20013;-88
2023/01/11 07:30:08;;;;;;;;;;;8.60;99.90;;;;;;4925089;29;19981;-88
2023/01/11 07:32:34;;;;;;;;;;;8.60;99.90;;;;;;4924401;29;19926;-88
2023/01/11 07:35:00;;;;;;;;;;;8.20;99.90;;;;;;4940350;29;19933;-88
2023/01/11 07:37:26;;;;;;;;;;;8.70;99.90;;;;;;4940456;29;19934;-88
2023/01/11 07:39:52;;;;;;;;;;;8.60;99.90;;;;;;4941330;29;19977;-88
2023/01/11 07:45:03;;;;;;;;;;;8.60;99.90;;;;;;4941510;29;20028;-93
2023/01/11 07:47:29;;;;;;;;;;;8.50;99.90;;;;;;4925492;29;20286;-90
2023/01/11 07:49:54;;;;;;;;;;;8.50;99.90;;;;;;4940116;29;19927;-89
2023/01/11 07:52:20;;;;;;;;;;;8.40;99.90;;;;;;4924231;29;19934;-91
2023/01/11 07:54:46;;;;;;;;;;;8.40;99.90;;;;;;4924510;29;20322;-90
2023/01/11 07:57:11;;;;;;;;;;;8.40;99.90;;;;;;4925453;29;19926;-91
2023/01/11 07:59:37;;;;;;;;;;;8.50;99.90;;;;;;4924367;29;19931;-90
2023/01/11 08:02:03;;;;;;;;;;;7.40;99.90;;;;;;4940471;29;19934;-91
2023/01/11 08:04:31;;;;;;;;;;;8.50;99.90;;;;;;4939465;29;19935;-90
2023/01/11 08:07:00;;;;;;;;;;;8.50;99.90;;;;;;4939368;29;20367;-91
2023/01/11 08:09:25;;;;;;;;;;;10.20;99.90;;;;;;4940041;29;19934;-90
2023/01/11 08:14:38;;;;;;;;;;;8.50;99.90;;;;;;4939797;29;19927;-90
2023/01/11 08:17:04;;;;;;;;;;;8.60;99.90;;;;;;4939571;29;20029;-90
2023/01/11 08:19:30;;;;;;;;;;;8.70;99.90;;;;;;4923481;29;19927;-90
2023/01/11 08:21:55;;;;;;;;;;;8.50;99.90;;;;;;4939560;29;20041;-92
2023/01/11 08:24:21;;;;;;;;;;;8.80;99.90;;;;;;4939372;29;20036;-91
2023/01/11 08:26:47;;;;;;;;;;;8.40;99.90;;;;;;4939190;29;19930;-88
2023/01/11 08:29:13;;;;;;;;;;;8.40;99.90;;;;;;4923384;29;20372;-87
2023/01/11 08:31:38;;;;;;;;;;;8.30;99.90;;;;;;4922898;29;19978;-89
2023/01/11 08:34:04;;;;;;;;;;;8.40;99.90;;;;;;4938554;29;20375;-88
2023/01/11 08:36:31;;;;;;;;;;;8.30;99.90;;;;;;4938829;29;19930;-88
2023/01/11 08:38:57;;;;;;;;;;;8.30;99.90;;;;;;4923817;29;19933;-90
2023/01/11 08:41:22;;;;;;;;;;;8.30;99.90;;;;;;4939092;29;20286;-87
2023/01/11 08:43:48;;;;;;;;;;;8.30;99.90;;;;;;4938192;29;20010;-89
2023/01/11 08:46:14;;;;;;;;;;;8.20;99.90;;;;;;4938912;29;19974;-88
2023/01/11 08:48:40;;;;;;;;;;;8.20;99.90;;;;;;4923051;29;19927;-86
2023/01/11 08:51:06;;;;;;;;;;;8.20;99.90;;;;;;4937920;29;19933;-88
2023/01/11 08:53:31;;;;;;;;;;;8.20;99.90;;;;;;4939310;29;19957;-89
2023/01/11 08:55:57;;;;;;;;;;;8.20;99.90;;;;;;4923040;29;20287;-89
2023/01/11 08:58:24;;;;;;;;;;;8.20;99.90;;;;;;4938590;29;19926;-89
2023/01/11 09:00:50;;;;;;;;;;;8.20;99.90;;;;;;4922774;29;20006;-90
2023/01/11 09:03:17;;;;;;;;;;;8.20;99.90;;;;;;4922637;29;20006;-87
2023/01/11 09:05:43;;;;;;;;;;;9.10;99.90;;;;;;4938528;29;19950;-88
2023/01/11 09:08:09;;;;;;;;;;;9.90;99.90;;;;;;4937816;29;19926;-88
2023/01/11 09:10:38;;;;;;;;;;;8.10;99.90;;;;;;4938264;29;19978;-89
2023/01/11 09:13:04;;;;;;;;;;;10.10;99.90;;;;;;4938221;29;19969;-89
2023/01/11 09:15:30;;;;;;;;;;;8.10;99.90;;;;;;4939002;29;20346;-89
2023/01/11 09:17:55;;;;;;;;;;;8.00;99.90;;;;;;4937564;29;20433;-88
2023/01/11 09:20:21;;;;;;;;;;;8.00;99.90;;;;;;4938909;29;20013;-89
2023/01/11 09:22:48;;;;;;;;;;;8.10;99.90;;;;;;4938724;29;19938;-88
2023/01/11 09:25:13;;;;;;;;;;;8.10;99.90;;;;;;4922490;29;19999;-88
2023/01/11 09:27:43;;;;;;;;;;;8.20;99.90;;;;;;4937656;29;19939;-88
2023/01/11 09:30:09;;;;;;;;;;;8.20;99.90;;;;;;4937977;29;19974;-88
2023/01/11 09:32:35;;;;;;;;;;;8.20;99.90;;;;;;4922580;29;19926;-88
2023/01/11 09:35:02;;;;;;;;;;;8.30;99.90;;;;;;4922253;29;19973;-89
2023/01/11 09:37:28;;;;;;;;;;;8.40;99.90;;;;;;4937889;29;19926;-89
2023/01/11 09:39:53;;;;;;;;;;;8.30;99.90;;;;;;4937897;29;19974;-88
2023/01/11 09:42:30;;;;;;;;;;;8.20;99.90;;;;;;4938235;29;19927;-90
2023/01/11 09:45:00;;;;;;;;;;;8.20;99.90;;;;;;4938204;29;20336;-89
2023/01/11 09:47:35;;;;;;;;;;;8.20;99.90;;;;;;4938192;29;19926;-88
2023/01/11 09:50:05;;;;;;;;;;;8.10;99.90;;;;;;4937725;29;19926;-88
2023/01/11 09:52:38;;;;;;;;;;;8.10;99.90;;;;;;4921872;29;19930;-88
2023/01/11 09:55:04;;;;;;;;;;;8.00;99.90;;;;;;4921973;29;20399;-88
2023/01/11 09:57:33;;;;;;;;;;;8.10;99.90;;;;;;4922257;29;19926;-88
2023/01/11 10:00:22;;;;;;;;;;;8.10;99.90;;;;;;4938518;29;19927;-88
2023/01/11 10:03:18;;;;;;;;;;;8.10;99.90;;;;;;4917868;29;19926;-89
2023/01/11 10:06:06;;;;;;;;;;;8.10;99.90;;;;;;4891714;29;19938;-94
2023/01/11 10:08:52;;;;;;;;;;;8.20;99.90;;;;;;4941520;29;20426;-87
2023/01/11 10:11:19;;;;;;;;;;;8.20;99.90;;;;;;4941375;29;19926;-87
2023/01/11 10:14:09;;;;;;;;;;;8.20;99.90;;;;;;4941659;29;20043;-87
2023/01/11 10:16:55;;;;;;;;;;;8.20;99.90;;;;;;4915165;29;19933;-87
2023/01/11 10:19:22;;;;;;;;;;;8.30;99.90;;;;;;4940887;29;20073;-87
2023/01/11 10:21:54;;;;;;;;;;;8.40;99.90;;;;;;4941730;29;19934;-89
2023/01/11 10:24:22;;;;;;;;;;;8.40;99.90;;;;;;4927004;29;19927;-88
2023/01/11 10:26:49;;;;;;;;;;;8.50;99.90;;;;;;4943379;29;19966;-88
2023/01/11 10:36:29;;;;;;;;;;;8.60;99.90;;;;;;4945119;29;19934;-88
2023/01/11 10:38:45;;;;;;;;;;;8.60;99.90;;;;;;4951105;29;19934;-87
2023/01/11 10:41:24;;;;;;;;;;;8.60;99.90;;;;;;4927012;29;20374;-88
2023/01/11 10:44:01;;;;;;;;;;;8.70;99.90;;;;;;4943310;29;20025;-87
2023/01/11 10:46:29;;;;;;;;;;;8.80;99.90;;;;;;4941588;29;19931;-88
2023/01/11 10:48:59;;;;;;;;;;;8.80;99.90;;;;;;4940625;29;20008;-88
2023/01/11 10:51:28;;;;;;;;;;;8.90;99.90;;;;;;4940783;29;19926;-89
2023/01/11 10:54:11;;;;;;;;;;;9.00;99.90;;;;;;4941327;29;20263;-89
2023/01/11 10:56:51;;;;;;;;;;;7.50;99.90;;;;;;4940742;29;20382;-87
2023/01/11 10:59:24;;;;;;;;;;;9.10;99.90;;;;;;4942770;29;19953;-85
2023/01/11 11:02:01;;;;;;;;;;;7.70;99.90;;;;;;4957352;29;19969;-85
2023/01/11 11:04:30;;;;;;;;;;;8.60;99.90;;;;;;4945466;29;19945;-88
2023/01/11 11:07:08;;;;;;;;;;;8.90;99.90;;;;;;4945599;29;20395;-88
2023/01/11 11:09:37;;;;;;;;;;;9.00;99.90;;;;;;4947923;29;19930;-89
2023/01/11 11:12:11;;;;;;;;;;;9.00;99.90;;;;;;4949465;29;20283;-87
2023/01/11 11:14:50;;;;;;;;;;;9.20;99.90;;;;;;4940608;29;19930;-89
2023/01/11 11:17:17;;;;;;;;;;;9.00;99.90;;;;;;4925608;29;19973;-88
2023/01/11 11:19:42;;;;;;;;;;;9.00;99.90;;;;;;4940952;29;19926;-88
2023/01/11 11:22:10;;;;;;;;;;;9.20;99.90;;;;;;4939919;29;20343;-88
2023/01/11 11:24:44;;;;;;;;;;;9.10;99.90;;;;;;4924417;29;19926;-88
2023/01/11 11:27:18;;;;;;;;;;;9.20;99.90;;;;;;4924638;29;19926;-90
2023/01/11 11:29:47;;;;;;;;;;;9.90;99.90;;;;;;4924199;29;19970;-88
2023/01/11 11:32:18;;;;;;;;;;;9.20;99.90;;;;;;4924015;29;19926;-87
2023/01/11 11:34:45;;;;;;;;;;;9.10;99.90;;;;;;4940102;29;20005;-90
2023/01/11 11:37:19;;;;;;;;;;;8.00;99.90;;;;;;4923370;29;19934;-89
2023/01/11 11:39:49;;;;;;;;;;;9.00;99.90;;;;;;4940375;29;20275;-90
2023/01/11 11:42:15;;;;;;;;;;;9.10;99.90;;;;;;4939630;29;19927;-88
2023/01/11 11:44:41;;;;;;;;;;;9.00;99.90;;;;;;4923937;29;20371;-88
2023/01/11 11:47:16;;;;;;;;;;;9.00;99.90;;;;;;4939644;29;19937;-89
2023/01/11 11:49:42;;;;;;;;;;;9.00;99.90;;;;;;4939589;29;19933;-90
2023/01/11 11:52:12;;;;;;;;;;;9.10;99.90;;;;;;4923784;29;19930;-89
2023/01/11 11:54:42;;;;;;;;;;;9.10;99.90;;;;;;4939864;29;19969;-88
2023/01/11 11:57:12;;;;;;;;;;;9.20;99.90;;;;;;4940144;29;19977;-89
2023/01/11 11:59:42;;;;;;;;;;;9.10;99.90;;;;;;4939316;29;19926;-88
2023/01/11 12:02:18;;;;;;;;;;;8.60;99.90;;;;;;4923582;29;20351;-88
2023/01/11 12:04:46;;;;;;;;;;;9.30;99.90;;;;;;4939795;29;20326;-87
2023/01/11 12:07:22;;;;;;;;;;;9.20;99.90;;;;;;4924217;29;20017;-87
2023/01/11 12:09:57;;;;;;;;;;;9.20;99.90;;;;;;4939398;29;19969;-87
2023/01/11 12:12:23;;;;;;;;;;;9.50;99.90;;;;;;4938971;29;19926;-87
2023/01/11 12:15:11;;;;;;;;;;;9.30;99.90;;;;;;4939364;29;20331;-87
2023/01/11 12:17:37;;;;;;;;;;;9.20;99.90;;;;;;4923155;29;19931;-87
2023/01/11 12:20:22;;;;;;;;;;;9.10;99.90;;;;;;4922849;29;20009;-87
2023/01/11 12:23:17;;;;;;;;;;;9.10;99.90;;;;;;4924079;29;20272;-88
2023/01/11 12:25:55;;;;;;;;;;;9.20;99.90;;;;;;4913723;29;20339;-87
2023/01/11 12:28:27;;;;;;;;;;;9.30;99.90;;;;;;4938649;29;19926;-86
2023/01/11 12:31:11;;;;;;;;;;;9.30;99.90;;;;;;4938807;29;19999;-87
2023/01/11 12:33:50;;;;;;;;;;;9.30;99.90;;;;;;4939329;29;19931;-87
2023/01/11 12:36:29;;;;;;;;;;;9.40;99.90;;;;;;4922803;29;19926;-89
2023/01/11 12:38:55;;;;;;;;;;;9.30;99.90;;;;;;4939171;29;20335;-89
2023/01/11 12:41:42;;;;;;;;;;;9.20;99.90;;;;;;4938779;29;19927;-88
2023/01/11 12:44:26;;;;;;;;;;;9.20;99.90;;;;;;4938795;29;19973;-88
2023/01/11 12:47:11;;;;;;;;;;;9.20;99.90;;;;;;4938557;29;19956;-88
2023/01/11 12:49:55;;;;;;;;;;;9.20;99.90;;;;;;4939303;29;19981;-88
2023/01/11 12:52:26;;;;;;;;;;;9.20;99.90;;;;;;4938125;29;20382;-87
2023/01/11 12:55:11;;;;;;;;;;;9.20;99.90;;;;;;4939050;29;20256;-90
2023/01/11 12:58:07;;;;;;;;;;;9.30;99.90;;;;;;4939899;29;19933;-89
2023/01/11 13:00:32;;;;;;;;;;;9.30;99.90;;;;;;4939510;29;20287;-87
2023/01/11 13:02:58;;;;;;;;;;;9.00;99.90;;;;;;4939101;29;19933;-88
2023/01/11 13:05:26;;;;;;;;;;;9.20;99.90;;;;;;4939219;29;19934;-88
2023/01/11 13:08:10;;;;;;;;;;;9.10;99.90;;;;;;4923151;29;19969;-88
2023/01/11 13:10:42;;;;;;;;;;;9.10;99.90;;;;;;4938659;29;19949;-88
2023/01/11 13:13:16;;;;;;;;;;;8.60;99.90;;;;;;4938324;29;19926;-88
2023/01/11 13:15:56;;;;;;;;;;;9.10;99.90;;;;;;4938751;29;19926;-88
2023/01/11 13:18:28;;;;;;;;;;;9.10;99.90;;;;;;4938387;29;19957;-88
2023/01/11 13:21:18;;;;;;;;;;;9.60;99.90;;;;;;4938188;29;19989;-88
2023/01/11 13:23:53;;;;;;;;;;;9.00;99.90;;;;;;4917067;29;19927;-87
2023/01/11 13:26:27;;;;;;;;;;;9.00;99.90;;;;;;4938230;29;20282;-88
2023/01/11 13:28:59;;;;;;;;;;;8.80;99.90;;;;;;4937757;29;20235;-89
2023/01/11 13:31:27;;;;;;;;;;;9.00;99.90;;;;;;4953667;29;20009;-89
2023/01/11 13:33:56;;;;;;;;;;;9.00;99.90;;;;;;4938310;29;20401;-89
2023/01/11 13:36:24;;;;;;;;;;;9.00;99.90;;;;;;4938126;29;19932;-88
2023/01/11 13:39:07;;;;;;;;;;;9.00;99.90;;;;;;4941263;29;19934;-89
2023/01/11 13:41:53;;;;;;;;;;;9.10;99.90;;;;;;4941646;29;19989;-89
2023/01/11 13:44:19;;;;;;;;;;;9.10;99.90;;;;;;4940983;29;19938;-90
2023/01/11 13:46:51;;;;;;;;;;;9.10;99.90;;;;;;4958528;29;19969;-88
2023/01/11 13:49:20;;;;;;;;;;;9.10;99.90;;;;;;4945152;29;19931;-88
2023/01/11 13:51:56;;;;;;;;;;;9.10;99.90;;;;;;4943180;29;19933;-88
2023/01/11 13:54:30;;;;;;;;;;;9.30;99.90;;;;;;4942714;29;20295;-88
2023/01/11 13:57:01;;;;;;;;;;;9.10;99.90;;;;;;4946332;29;20334;-89
2023/01/11 13:59:29;;;;;;;;;;;9.10;99.90;;;;;;4928232;29;19927;-88
2023/01/11 14:02:04;;;;;;;;;;;9.00;99.90;;;;;;4926628;29;19927;-89
2023/01/11 14:04:32;;;;;;;;;;;9.00;99.90;;;;;;4942631;29;19973;-87
2023/01/11 14:07:18;;;;;;;;;;;9.00;99.90;;;;;;4941534;29;20064;-88
2023/01/11 14:09:57;;;;;;;;;;;9.10;99.90;;;;;;4905598;29;20382;-89
2023/01/11 14:12:29;;;;;;;;;;;9.00;99.90;;;;;;4941052;29;19961;-89
2023/01/11 14:15:06;;;;;;;;;;;10.00;99.90;;;;;;4941353;29;19930;-89
2023/01/11 14:17:31;;;;;;;;;;;9.00;99.90;;;;;;4941508;29;19926;-87
2023/01/11 14:20:16;;;;;;;;;;;8.80;99.90;;;;;;4941204;29;20024;-88
2023/01/11 14:23:00;;;;;;;;;;;8.80;99.90;;;;;;4941644;29;20290;-88
2023/01/11 14:25:26;;;;;;;;;;;8.90;99.90;;;;;;4941382;29;19926;-88
2023/01/11 14:28:10;;;;;;;;;;;8.90;99.90;;;;;;4940301;29;19949;-90
2023/01/11 14:30:42;;;;;;;;;;;8.90;99.90;;;;;;4941519;29;19992;-88
2023/01/11 14:33:26;;;;;;;;;;;8.90;99.90;;;;;;4940345;29;19930;-89
2023/01/11 14:36:17;;;;;;;;;;;8.80;99.90;;;;;;4940851;29;19927;-89
2023/01/11 14:38:46;;;;;;;;;;;8.80;99.90;;;;;;4925195;29;19937;-88
2023/01/11 14:41:24;;;;;;;;;;;8.70;99.90;;;;;;4940727;29;19926;-88
2023/01/11 14:44:22;;;;;;;;;;;8.70;99.90;;;;;;4940436;29;19932;-88
2023/01/11 14:46:54;;;;;;;;;;;8.60;99.90;;;;;;4903727;29;19926;-87
2023/01/11 14:49:19;;;;;;;;;;;8.60;99.90;;;;;;4939537;29;19926;-88
2023/01/11 14:51:51;;;;;;;;;;;8.50;99.90;;;;;;4940965;29;19973;-89
2023/01/11 14:54:25;;;;;;;;;;;8.50;99.90;;;;;;4925200;29;19930;-88
2023/01/11 14:56:52;;;;;;;;;;;8.50;99.90;;;;;;4941248;29;19977;-86
2023/01/11 14:59:30;;;;;;;;;;;8.40;99.90;;;;;;4924894;29;19926;-87
2023/01/11 15:02:02;;;;;;;;;;;8.40;99.90;;;;;;4940623;29;19927;-88
2023/01/11 15:04:28;;;;;;;;;;;8.40;99.90;;;;;;4940550;29;19978;-87
2023/01/11 15:06:54;;;;;;;;;;;8.40;99.90;;;;;;4956307;29;20290;-87
2023/01/11 15:09:38;;;;;;;;;;;8.40;99.90;;;;;;4924957;29;19934;-89
2023/01/11 15:12:11;;;;;;;;;;;8.40;99.90;;;;;;4940576;29;19927;-88
2023/01/11 15:14:37;;;;;;;;;;;8.30;99.90;;;;;;4940424;29;20024;-87
2023/01/11 15:19:48;;;;;;;;;;;8.30;99.90;;;;;;4940959;29;19930;-87